createdAt,value
2019-05-30T00:00:17.563Z,7.00
2019-05-30T00:02:45.495Z,6.90
2019-05-30T00:05:17.564Z,6.90
2019-05-30T00:07:49.086Z,6.90
2019-05-30T00:10:21.743Z,6.80
2019-05-30T00:12:54.698Z,6.80
2019-05-30T00:15:26.376Z,6.80
2019-05-30T00:17:58.648Z,6.70
2019-05-30T00:20:30.660Z,6.70
2019-05-30T00:23:02.124Z,6.70
2019-05-30T00:25:33.636Z,6.70
2019-05-30T00:28:07.567Z,6.70
2019-05-30T00:30:39.143Z,6.70
2019-05-30T00:33:10.975Z,6.60
2019-05-30T00:35:42.689Z,6.60
2019-05-30T00:38:14.297Z,6.60
2019-05-30T00:40:45.807Z,6.60
2019-05-30T00:43:17.299Z,6.50
2019-05-30T00:45:48.954Z,6.50
2019-05-30T00:48:20.362Z,6.50
2019-05-30T00:50:52.165Z,6.40
2019-05-30T00:53:23.739Z,6.40
2019-05-30T00:55:56.656Z,6.40
2019-05-30T00:58:28.108Z,6.30
2019-05-30T01:01:01.012Z,6.30
2019-05-30T01:03:32.588Z,6.40
2019-05-30T01:06:04.998Z,6.50
2019-05-30T01:08:37.179Z,6.40
2019-05-30T01:11:09.048Z,6.40
2019-05-30T01:13:40.937Z,6.40
2019-05-30T01:16:12.404Z,6.30
2019-05-30T01:18:43.879Z,6.20
2019-05-30T01:21:15.427Z,6.20
2019-05-30T01:23:46.836Z,6.20
2019-05-30T01:26:18.280Z,6.20
2019-05-30T01:28:49.780Z,6.20
2019-05-30T01:31:21.281Z,6.20
2019-05-30T01:33:52.732Z,6.10
2019-05-30T01:36:24.765Z,6.00
2019-05-30T01:38:57.602Z,6.10
2019-05-30T01:41:29.070Z,6.10
2019-05-30T01:44:01.904Z,6.20
2019-05-30T01:46:33.473Z,6.20
2019-05-30T01:49:04.977Z,6.10
2019-05-30T01:51:36.302Z,6.10
2019-05-30T01:54:08.827Z,6.10
2019-05-30T01:56:40.381Z,6.00
2019-05-30T01:59:12.273Z,6.00
2019-05-30T02:01:44.142Z,6.00
2019-05-30T02:04:15.581Z,5.80
2019-05-30T02:06:47.085Z,5.90
2019-05-30T02:09:18.581Z,5.90
2019-05-30T02:11:50.411Z,5.80
2019-05-30T02:14:21.900Z,5.80
2019-05-30T02:16:53.340Z,5.90
2019-05-30T02:19:25.031Z,5.80
2019-05-30T02:21:56.705Z,5.80
2019-05-30T02:24:28.320Z,5.80
2019-05-30T02:27:00.278Z,5.80
2019-05-30T02:29:31.749Z,5.80
2019-05-30T02:32:04.858Z,5.80
2019-05-30T02:34:36.511Z,5.80
2019-05-30T02:37:10.139Z,5.80
2019-05-30T02:39:41.511Z,5.70
2019-05-30T02:42:13.130Z,5.70
2019-05-30T02:44:45.748Z,5.60
2019-05-30T02:47:21.968Z,5.60
2019-05-30T02:49:50.753Z,5.60
2019-05-30T02:52:22.569Z,5.60
2019-05-30T02:54:53.965Z,5.70
2019-05-30T02:57:25.360Z,5.80
2019-05-30T02:59:57.363Z,5.90
2019-05-30T03:02:28.737Z,5.90
2019-05-30T03:05:01.670Z,5.90
2019-05-30T03:07:33.825Z,5.90
2019-05-30T03:10:07.638Z,5.90
2019-05-30T03:12:40.442Z,5.90
2019-05-30T03:15:14.928Z,6.00
2019-05-30T03:17:45.793Z,6.10
2019-05-30T03:20:22.882Z,6.10
2019-05-30T03:22:50.733Z,6.00
2019-05-30T03:25:22.903Z,6.00
2019-05-30T03:27:54.962Z,6.00
2019-05-30T03:30:29.375Z,6.00
2019-05-30T03:33:16.422Z,6.10
2019-05-30T03:35:41.837Z,6.10
2019-05-30T03:38:08.642Z,6.10
2019-05-30T03:40:41.323Z,6.10
2019-05-30T03:43:15.697Z,6.00
2019-05-30T03:45:47.252Z,5.90
2019-05-30T03:48:23.565Z,5.90
2019-05-30T03:50:59.417Z,5.90
2019-05-30T03:53:31.935Z,5.80
2019-05-30T03:56:13.527Z,5.90
2019-05-30T03:58:56.698Z,5.90
2019-05-30T04:01:36.469Z,5.90
2019-05-30T04:04:21.857Z,5.90
2019-05-30T04:06:59.862Z,5.90
2019-05-30T04:09:33.950Z,5.90
2019-05-30T04:12:26.237Z,5.90
2019-05-30T04:15:07.811Z,6.00
2019-05-30T04:17:38.797Z,6.00
2019-05-30T04:20:11.536Z,6.10
2019-05-30T04:22:43.524Z,6.10
2019-05-30T04:25:16.694Z,6.10
2019-05-30T04:27:48.174Z,6.20
2019-05-30T04:30:19.989Z,6.20
2019-05-30T04:32:51.385Z,6.40
2019-05-30T04:35:22.747Z,6.30
2019-05-30T04:37:54.396Z,6.30
2019-05-30T04:40:26.746Z,6.30
2019-05-30T04:42:58.285Z,6.40
2019-05-30T04:45:29.735Z,6.40
2019-05-30T04:48:01.046Z,6.50
2019-05-30T04:50:32.412Z,6.60
2019-05-30T04:53:03.783Z,6.70
2019-05-30T04:55:35.190Z,6.70
2019-05-30T04:58:06.703Z,6.90
2019-05-30T05:00:38.242Z,7.00
2019-05-30T05:03:11.324Z,7.10
2019-05-30T05:05:51.496Z,8.90
2019-05-30T05:08:22.980Z,7.30
2019-05-30T05:10:54.737Z,7.40
2019-05-30T05:13:26.041Z,7.50
2019-05-30T05:15:57.344Z,7.60
2019-05-30T05:18:28.703Z,7.70
2019-05-30T05:21:00.288Z,7.80
2019-05-30T05:23:31.601Z,7.90
2019-05-30T05:26:03.161Z,8.10
2019-05-30T05:28:34.692Z,8.20
2019-05-30T05:31:06.175Z,8.30
2019-05-30T05:33:37.677Z,8.40
2019-05-30T05:36:09.175Z,8.50
2019-05-30T05:38:40.677Z,8.60
2019-05-30T05:41:12.162Z,8.80
2019-05-30T05:43:44.526Z,8.90
2019-05-30T05:46:18.476Z,9.00
2019-05-30T05:48:51.214Z,9.20
2019-05-30T05:51:22.810Z,9.30
2019-05-30T05:53:54.336Z,9.40
2019-05-30T05:56:25.882Z,9.60
2019-05-30T05:58:57.585Z,9.90
2019-05-30T06:01:30.284Z,10.10
2019-05-30T06:04:12.698Z,10.30
2019-05-30T06:06:35.064Z,10.50
2019-05-30T06:09:07.496Z,10.80
2019-05-30T06:11:39.002Z,11.00
2019-05-30T06:14:10.402Z,11.40
2019-05-30T06:16:41.999Z,11.60
2019-05-30T06:19:13.403Z,12.00
2019-05-30T06:21:53.574Z,12.20
2019-05-30T06:24:19.528Z,12.40
2019-05-30T06:26:51.141Z,12.70
2019-05-30T06:29:22.569Z,12.90
2019-05-30T06:31:54.051Z,13.30
2019-05-30T06:34:36.667Z,13.60
2019-05-30T06:36:59.801Z,13.80
2019-05-30T06:39:31.366Z,14.00
2019-05-30T06:42:02.954Z,14.20
2019-05-30T06:44:34.459Z,14.30
2019-05-30T06:47:05.888Z,14.30
2019-05-30T06:49:37.346Z,14.50
2019-05-30T06:52:08.746Z,14.70
2019-05-30T06:54:40.495Z,14.90
2019-05-30T06:57:11.775Z,15.20
2019-05-30T06:59:43.115Z,15.40
2019-05-30T07:02:14.584Z,15.50
2019-05-30T07:04:51.797Z,15.70
2019-05-30T07:07:19.280Z,16.00
2019-05-30T07:09:50.788Z,15.90
2019-05-30T07:12:22.912Z,16.10
2019-05-30T07:14:54.365Z,16.30
2019-05-30T07:17:25.683Z,16.60
2019-05-30T07:19:57.171Z,16.50
2019-05-30T07:22:29.727Z,16.60
2019-05-30T07:25:01.232Z,16.80
2019-05-30T07:27:34.071Z,17.00
2019-05-30T07:30:08.209Z,17.30
2019-05-30T07:32:39.701Z,17.40
2019-05-30T07:35:11.267Z,17.50
2019-05-30T07:37:46.380Z,17.70
2019-05-30T07:40:19.384Z,17.90
2019-05-30T07:42:50.021Z,17.80
2019-05-30T07:45:21.953Z,17.70
2019-05-30T07:47:53.442Z,17.50
2019-05-30T07:50:26.323Z,17.40
2019-05-30T07:52:58.429Z,17.40
2019-05-30T07:55:30.981Z,17.80
2019-05-30T07:58:02.508Z,18.00
2019-05-30T08:00:35.478Z,18.20
2019-05-30T08:03:08.456Z,18.40
2019-05-30T08:05:39.925Z,18.60
2019-05-30T08:08:11.834Z,18.70
2019-05-30T08:10:43.567Z,18.90
2019-05-30T08:13:14.991Z,19.10
2019-05-30T08:15:46.680Z,19.20
2019-05-30T08:18:18.094Z,19.40
2019-05-30T08:20:50.266Z,19.60
2019-05-30T08:23:22.970Z,19.80
2019-05-30T08:26:01.641Z,20.10
2019-05-30T08:28:36.414Z,20.00
2019-05-30T08:31:11.587Z,20.10
2019-05-30T08:33:47.337Z,20.20
2019-05-30T08:36:19.185Z,20.30
2019-05-30T08:38:53.530Z,20.30
2019-05-30T08:41:25.468Z,20.20
2019-05-30T08:44:01.006Z,20.50
2019-05-30T08:46:33.709Z,20.60
2019-05-30T08:49:07.336Z,21.00
2019-05-30T08:51:40.759Z,21.20
2019-05-30T08:54:13.929Z,21.00
2019-05-30T08:56:47.365Z,20.70
2019-05-30T08:59:21.329Z,20.60
2019-05-30T09:01:54.112Z,20.60
2019-05-30T09:04:27.731Z,20.60
2019-05-30T09:07:02.887Z,20.80
2019-05-30T09:09:38.189Z,21.10
2019-05-30T09:12:10.371Z,21.20
2019-05-30T09:14:42.975Z,21.20
2019-05-30T09:17:16.275Z,21.30
2019-05-30T09:19:50.746Z,21.60
2019-05-30T09:22:23.765Z,21.70
2019-05-30T09:24:55.896Z,21.70
2019-05-30T09:27:27.256Z,21.70
2019-05-30T09:29:58.924Z,21.60
2019-05-30T09:32:30.853Z,21.80
2019-05-30T09:35:03.520Z,22.10
2019-05-30T09:37:35.541Z,22.30
2019-05-30T09:40:09.504Z,21.80
2019-05-30T09:42:42.629Z,21.00
2019-05-30T09:45:16.886Z,20.50
2019-05-30T09:47:49.371Z,20.70
2019-05-30T09:50:22.782Z,21.50
2019-05-30T09:52:54.731Z,22.10
2019-05-30T09:55:26.484Z,22.50
2019-05-30T09:57:57.926Z,22.50
2019-05-30T10:00:29.969Z,21.60
2019-05-30T10:03:01.653Z,21.40
2019-05-30T10:05:33.026Z,21.50
2019-05-30T10:08:04.457Z,20.20
2019-05-30T10:10:35.942Z,22.40
2019-05-30T10:13:07.665Z,22.60
2019-05-30T10:15:39.125Z,23.40
2019-05-30T10:18:10.570Z,24.30
2019-05-30T10:20:42.090Z,24.90
2019-05-30T10:23:13.826Z,24.10
2019-05-30T10:25:46.669Z,23.10
2019-05-30T10:28:18.247Z,22.90
2019-05-30T10:30:54.465Z,23.00
2019-05-30T10:33:23.187Z,22.40
2019-05-30T10:35:54.816Z,21.50
2019-05-30T10:38:26.466Z,20.80
2019-05-30T10:40:57.775Z,20.30
2019-05-30T10:43:29.146Z,20.00
2019-05-30T10:46:01.145Z,20.20
2019-05-30T10:48:32.696Z,20.10
2019-05-30T10:51:04.378Z,20.10
2019-05-30T10:53:37.774Z,19.90
2019-05-30T10:56:09.530Z,19.70
2019-05-30T10:58:40.970Z,19.60
2019-05-30T11:01:12.470Z,19.60
2019-05-30T11:03:44.353Z,19.60
2019-05-30T11:07:04.828Z,19.60
2019-05-30T11:09:28.615Z,19.70
2019-05-30T11:12:00.399Z,20.20
2019-05-30T11:14:32.131Z,21.50
2019-05-30T11:17:03.515Z,22.80
2019-05-30T11:19:35.113Z,23.40
2019-05-30T11:22:06.894Z,23.60
2019-05-30T11:24:38.369Z,24.10
2019-05-30T11:27:09.665Z,25.00
2019-05-30T11:29:41.069Z,25.70
2019-05-30T11:32:12.818Z,25.90
2019-05-30T11:34:44.158Z,25.40
2019-05-30T11:37:18.881Z,24.40
2019-05-30T11:39:49.228Z,24.10
2019-05-30T11:42:20.870Z,24.20
2019-05-30T11:44:53.387Z,24.70
2019-05-30T11:47:25.258Z,25.40
2019-05-30T11:49:57.795Z,25.80
2019-05-30T11:52:30.867Z,24.60
2019-05-30T11:55:02.434Z,23.10
2019-05-30T11:57:33.789Z,22.30
2019-05-30T12:00:06.147Z,21.60
2019-05-30T12:02:38.529Z,22.00
2019-05-30T12:05:11.870Z,22.50
2019-05-30T12:07:43.257Z,23.10
2019-05-30T12:10:15.596Z,24.10
2019-05-30T12:12:47.472Z,24.70
2019-05-30T12:15:20.631Z,25.20
2019-05-30T12:17:53.009Z,25.50
2019-05-30T12:20:26.056Z,25.50
2019-05-30T12:22:57.985Z,25.60
2019-05-30T12:25:29.504Z,25.60
2019-05-30T12:28:03.751Z,25.90
2019-05-30T12:30:34.226Z,26.60
2019-05-30T12:33:05.744Z,26.80
2019-05-30T12:35:37.452Z,27.20
2019-05-30T12:38:08.900Z,27.30
2019-05-30T12:40:40.333Z,27.20
2019-05-30T12:43:11.767Z,26.70
2019-05-30T12:45:43.228Z,26.60
2019-05-30T12:48:14.778Z,26.90
2019-05-30T12:50:46.367Z,26.50
2019-05-30T12:53:17.816Z,26.20
2019-05-30T12:55:49.207Z,26.50
2019-05-30T12:58:20.647Z,26.90
2019-05-30T13:00:54.547Z,26.50
2019-05-30T13:03:26.123Z,26.10
2019-05-30T13:05:57.536Z,26.10
2019-05-30T13:08:29.007Z,26.20
2019-05-30T13:11:01.735Z,26.50
2019-05-30T13:13:33.604Z,27.10
2019-05-30T13:16:07.650Z,27.20
2019-05-30T13:18:38.145Z,26.80
2019-05-30T13:21:10.693Z,26.80
2019-05-30T13:23:42.222Z,26.30
2019-05-30T13:26:13.702Z,26.30
2019-05-30T13:28:45.074Z,25.90
2019-05-30T13:31:17.055Z,25.90
2019-05-30T13:33:48.796Z,25.90
2019-05-30T13:36:20.513Z,26.50
2019-05-30T13:38:52.222Z,26.90
2019-05-30T13:41:24.786Z,27.10
2019-05-30T13:43:56.187Z,27.30
2019-05-30T13:46:27.825Z,27.80
2019-05-30T13:49:00.679Z,27.90
2019-05-30T13:51:33.395Z,27.40
2019-05-30T13:54:05.341Z,27.10
2019-05-30T13:56:37.072Z,26.60
2019-05-30T13:59:09.866Z,26.30
2019-05-30T14:01:41.467Z,25.70
2019-05-30T14:04:12.929Z,25.50
2019-05-30T14:06:44.167Z,25.10
2019-05-30T14:09:15.776Z,25.40
2019-05-30T14:11:47.153Z,25.60
2019-05-30T14:14:19.798Z,25.30
2019-05-30T14:16:51.991Z,25.20
2019-05-30T14:19:25.196Z,25.50
2019-05-30T14:21:57.705Z,25.30
2019-05-30T14:24:29.397Z,25.50
2019-05-30T14:27:01.422Z,25.50
2019-05-30T14:29:32.813Z,25.70
2019-05-30T14:32:04.216Z,25.50
2019-05-30T14:34:35.800Z,25.40
2019-05-30T14:37:08.404Z,24.70
2019-05-30T14:39:40.306Z,24.00
2019-05-30T14:42:11.780Z,23.60
2019-05-30T14:44:43.465Z,23.20
2019-05-30T14:47:14.798Z,22.60
2019-05-30T14:49:46.184Z,22.40
2019-05-30T14:52:17.761Z,22.10
2019-05-30T14:54:49.087Z,22.30
2019-05-30T14:57:20.822Z,22.30
2019-05-30T14:59:52.374Z,22.70
2019-05-30T15:02:24.194Z,23.30
2019-05-30T15:04:55.640Z,23.50
2019-05-30T15:07:27.534Z,23.20
2019-05-30T15:09:58.882Z,22.70
2019-05-30T15:12:30.306Z,22.80
2019-05-30T15:15:02.112Z,22.90
2019-05-30T15:17:34.229Z,23.90
2019-05-30T15:20:07.463Z,23.90
2019-05-30T15:22:39.127Z,23.50
2019-05-30T15:25:12.526Z,22.90
2019-05-30T15:27:44.043Z,22.60
2019-05-30T15:30:17.133Z,22.30
2019-05-30T15:32:48.779Z,22.00
2019-05-30T15:35:21.719Z,21.90
2019-05-30T15:37:53.014Z,21.70
2019-05-30T15:40:24.870Z,21.80
2019-05-30T15:42:56.141Z,21.70
2019-05-30T15:45:27.582Z,21.60
2019-05-30T15:47:59.146Z,21.40
2019-05-30T15:50:30.549Z,21.90
2019-05-30T15:53:02.290Z,22.90
2019-05-30T15:55:33.736Z,23.80
2019-05-30T15:58:05.124Z,24.70
2019-05-30T16:00:37.113Z,24.70
2019-05-30T16:03:08.624Z,24.40
2019-05-30T16:05:40.088Z,23.80
2019-05-30T16:08:12.633Z,23.10
2019-05-30T16:10:44.270Z,22.40
2019-05-30T16:13:15.745Z,21.80
2019-05-30T16:15:46.941Z,21.90
2019-05-30T16:18:18.336Z,22.30
2019-05-30T16:20:49.762Z,22.80
2019-05-30T16:23:21.208Z,23.20
2019-05-30T16:25:53.165Z,22.90
2019-05-30T16:28:26.024Z,22.80
2019-05-30T16:30:57.873Z,23.20
2019-05-30T16:33:29.351Z,23.70
2019-05-30T16:36:00.783Z,24.10
2019-05-30T16:38:33.164Z,24.20
2019-05-30T16:41:04.710Z,24.30
2019-05-30T16:43:36.227Z,24.20
2019-05-30T16:46:08.094Z,23.40
2019-05-30T16:48:39.867Z,22.60
2019-05-30T16:51:11.433Z,22.00
2019-05-30T16:53:42.790Z,21.60
2019-05-30T16:56:15.203Z,21.80
2019-05-30T16:58:46.589Z,22.00
2019-05-30T17:01:17.950Z,22.20
2019-05-30T17:03:49.592Z,22.20
2019-05-30T17:06:22.053Z,21.90
2019-05-30T17:08:53.468Z,22.20
2019-05-30T17:11:25.590Z,22.40
2019-05-30T17:13:57.292Z,22.60
2019-05-30T17:16:28.767Z,22.70
2019-05-30T17:19:00.727Z,22.50
2019-05-30T17:21:32.091Z,22.40
2019-05-30T17:24:03.576Z,22.40
2019-05-30T17:26:34.801Z,22.20
2019-05-30T17:29:06.171Z,22.00
2019-05-30T17:31:38.596Z,21.80
2019-05-30T17:34:10.369Z,21.50
2019-05-30T17:36:41.793Z,21.40
2019-05-30T17:39:14.227Z,21.30
2019-05-30T17:41:45.626Z,21.30
2019-05-30T17:44:17.077Z,21.30
2019-05-30T17:46:48.475Z,21.20
2019-05-30T17:49:21.657Z,21.00
2019-05-30T17:51:52.960Z,20.80
2019-05-30T17:54:26.014Z,20.60
2019-05-30T17:56:57.487Z,20.40
2019-05-30T17:59:28.909Z,20.20
2019-05-30T18:02:01.066Z,20.00
2019-05-30T18:04:32.517Z,19.80
2019-05-30T18:07:04.150Z,19.80
2019-05-30T18:09:35.611Z,19.60
2019-05-30T18:12:07.179Z,19.60
2019-05-30T18:14:38.874Z,19.50
2019-05-30T18:17:10.214Z,19.40
2019-05-30T18:19:41.630Z,19.40
2019-05-30T18:22:13.044Z,19.20
2019-05-30T18:24:44.482Z,19.10
2019-05-30T18:27:15.853Z,19.00
2019-05-30T18:29:47.285Z,18.80
2019-05-30T18:32:19.007Z,18.50
2019-05-30T18:34:50.289Z,18.00
2019-05-30T18:37:24.902Z,17.60
2019-05-30T18:39:55.545Z,17.20
2019-05-30T18:42:27.372Z,16.80
2019-05-30T18:44:58.879Z,16.40
2019-05-30T18:47:31.190Z,16.10
2019-05-30T18:50:02.740Z,15.80
2019-05-30T18:52:34.039Z,15.60
2019-05-30T18:55:06.716Z,15.30
2019-05-30T18:57:38.194Z,15.10
2019-05-30T19:00:13.170Z,14.90
2019-05-30T19:02:43.889Z,14.70
2019-05-30T19:05:15.774Z,14.50
2019-05-30T19:07:47.190Z,14.30
2019-05-30T19:10:18.759Z,14.10
2019-05-30T19:12:50.594Z,14.00
2019-05-30T19:15:22.577Z,13.80
2019-05-30T19:17:54.378Z,13.70
2019-05-30T19:20:27.595Z,13.60
2019-05-30T19:22:59.034Z,13.50
2019-05-30T19:25:32.334Z,13.40
2019-05-30T19:28:03.757Z,13.30
2019-05-30T19:30:35.222Z,13.30
2019-05-30T19:33:06.761Z,13.20
2019-05-30T19:35:38.147Z,13.10
2019-05-30T19:38:09.893Z,13.10
2019-05-30T19:40:41.325Z,13.10
2019-05-30T19:43:12.935Z,13.10
2019-05-30T19:45:44.332Z,13.00
2019-05-30T19:48:15.765Z,12.90
2019-05-30T19:50:47.222Z,12.90
2019-05-30T19:53:18.828Z,12.80
2019-05-30T19:55:50.100Z,12.70
2019-05-30T19:58:22.067Z,12.70
2019-05-30T20:00:58.331Z,12.80
2019-05-30T20:03:36.363Z,12.90
2019-05-30T20:05:59.801Z,12.80
2019-05-30T20:08:47.031Z,12.80
2019-05-30T20:11:04.309Z,12.60
2019-05-30T20:13:37.087Z,12.50
2019-05-30T20:16:09.451Z,12.40
2019-05-30T20:18:41.791Z,12.30
2019-05-30T20:21:13.442Z,12.30
2019-05-30T20:23:52.712Z,12.20
2019-05-30T20:26:19.541Z,12.10
2019-05-30T20:28:50.751Z,12.00
2019-05-30T20:31:22.600Z,12.00
2019-05-30T20:33:53.938Z,11.90
2019-05-30T20:36:25.506Z,11.90
2019-05-30T20:38:56.863Z,11.80
2019-05-30T20:41:28.243Z,11.80
2019-05-30T20:43:59.724Z,11.80
2019-05-30T20:46:31.060Z,11.80
2019-05-30T20:49:02.541Z,11.70
2019-05-30T20:51:35.558Z,11.70
2019-05-30T20:54:07.159Z,11.80
2019-05-30T20:56:39.488Z,11.80
2019-05-30T20:59:11.000Z,11.90
2019-05-30T21:01:43.768Z,12.10
2019-05-30T21:04:15.417Z,12.20
2019-05-30T21:06:48.382Z,12.30
2019-05-30T21:09:28.978Z,12.40
2019-05-30T21:11:55.420Z,12.50
2019-05-30T21:14:32.646Z,12.60
2019-05-30T21:17:04.348Z,12.60
2019-05-30T21:19:35.963Z,12.70
2019-05-30T21:22:07.493Z,12.80
2019-05-30T21:24:39.006Z,12.80
2019-05-30T21:27:10.460Z,12.90
2019-05-30T21:29:43.082Z,13.00
2019-05-30T21:32:14.852Z,13.00
2019-05-30T21:34:46.683Z,13.00
2019-05-30T21:37:18.637Z,13.00
2019-05-30T21:39:49.853Z,13.00
2019-05-30T21:42:20.969Z,13.00
2019-05-30T21:44:53.004Z,13.00
2019-05-30T21:47:25.531Z,13.10
2019-05-30T21:49:56.932Z,13.20
2019-05-30T21:52:29.882Z,13.20
2019-05-30T21:55:03.390Z,13.20
2019-05-30T21:57:34.675Z,13.20
2019-05-30T22:00:11.067Z,13.30
2019-05-30T22:02:50.768Z,13.30
2019-05-30T22:05:22.363Z,13.30
2019-05-30T22:07:59.953Z,13.30
2019-05-30T22:10:32.597Z,13.30
2019-05-30T22:13:09.615Z,13.30
2019-05-30T22:15:37.354Z,13.30
2019-05-30T22:18:18.375Z,13.40
2019-05-30T22:20:50.169Z,13.40
2019-05-30T22:23:21.807Z,13.40
2019-05-30T22:25:53.201Z,13.30
2019-05-30T22:28:24.694Z,13.30
2019-05-30T22:30:55.962Z,13.30
2019-05-30T22:33:27.389Z,13.40
2019-05-30T22:35:58.808Z,13.40
2019-05-30T22:38:30.478Z,13.40
2019-05-30T22:41:02.132Z,13.40
2019-05-30T22:43:33.845Z,13.30
2019-05-30T22:46:05.422Z,13.40
2019-05-30T22:48:36.793Z,13.40
2019-05-30T22:51:08.271Z,13.40
2019-05-30T22:53:39.740Z,13.40
2019-05-30T22:56:11.243Z,13.50
2019-05-30T22:58:42.714Z,13.50
2019-05-30T23:01:14.576Z,13.50
2019-05-30T23:03:47.173Z,13.50
2019-05-30T23:06:18.732Z,13.50
2019-05-30T23:08:50.481Z,13.60
2019-05-30T23:11:22.030Z,13.60
2019-05-30T23:13:53.999Z,13.60
2019-05-30T23:16:25.748Z,13.60
2019-05-30T23:18:57.086Z,13.60
2019-05-30T23:21:28.486Z,13.50
2019-05-30T23:24:00.307Z,13.50
2019-05-30T23:26:31.737Z,13.50
2019-05-30T23:29:03.275Z,13.50
2019-05-30T23:31:34.722Z,13.50
2019-05-30T23:34:06.330Z,13.60
2019-05-30T23:36:37.710Z,13.50
2019-05-30T23:39:09.153Z,13.50
2019-05-30T23:41:40.447Z,13.50
2019-05-30T23:44:12.237Z,13.40
2019-05-30T23:46:43.937Z,13.40
2019-05-30T23:49:15.437Z,13.40
2019-05-30T23:51:46.902Z,13.40
2019-05-30T23:54:18.597Z,13.40
2019-05-30T23:56:50.515Z,13.50
2019-05-30T23:59:23.414Z,13.40
